createdAt,value
2022-12-01T00:01:15.545Z,37.37
2022-12-01T00:03:44.434Z,37.63
2022-12-01T00:06:15.615Z,37.37
2022-12-01T00:09:06.725Z,37.30
2022-12-01T00:11:34.015Z,37.00
2022-12-01T00:14:02.231Z,37.44
2022-12-01T00:16:30.600Z,37.55
2022-12-01T00:18:58.900Z,37.63
2022-12-01T00:21:27.212Z,37.81
2022-12-01T00:23:57.768Z,37.61
2022-12-01T00:26:26.212Z,37.55
2022-12-01T00:28:54.950Z,37.33
2022-12-01T00:31:23.265Z,37.38
2022-12-01T00:33:51.561Z,37.79
2022-12-01T00:36:19.863Z,37.67
2022-12-01T00:38:48.129Z,37.62
2022-12-01T00:41:18.356Z,37.13
2022-12-01T00:43:46.854Z,37.14
2022-12-01T00:46:15.153Z,37.43
2022-12-01T00:48:43.510Z,37.29
2022-12-01T00:51:11.713Z,37.30
2022-12-01T00:53:39.947Z,37.53
2022-12-01T00:56:08.781Z,37.31
2022-12-01T00:58:38.608Z,37.19
2022-12-01T01:01:07.195Z,37.67
2022-12-01T01:03:35.521Z,37.66
2022-12-01T01:06:07.496Z,37.18
2022-12-01T01:08:35.980Z,37.49
2022-12-01T01:11:04.400Z,37.48
2022-12-01T01:13:32.617Z,37.29
2022-12-01T01:16:03.651Z,37.09
2022-12-01T01:18:31.988Z,37.15
2022-12-01T01:21:00.274Z,36.94
2022-12-01T01:23:28.569Z,37.11
2022-12-01T01:26:02.584Z,37.22
2022-12-01T01:28:32.071Z,37.53
2022-12-01T01:31:01.749Z,36.97
2022-12-01T01:33:31.473Z,37.51
2022-12-01T01:36:00.372Z,36.95
2022-12-01T01:38:28.703Z,37.06
2022-12-01T01:40:57.031Z,37.18
2022-12-01T01:43:40.820Z,37.45
2022-12-01T01:46:11.619Z,37.23
2022-12-01T01:48:40.404Z,37.26
2022-12-01T01:51:08.959Z,37.47
2022-12-01T01:53:37.037Z,37.46
2022-12-01T01:56:05.445Z,37.49
2022-12-01T01:58:33.546Z,37.15
2022-12-01T02:01:01.734Z,36.96
2022-12-01T02:03:31.249Z,37.54
2022-12-01T02:06:04.528Z,37.36
2022-12-01T02:08:34.302Z,37.37
2022-12-01T02:11:48.596Z,37.47
2022-12-01T02:14:47.229Z,37.58
2022-12-01T02:17:31.065Z,37.43
2022-12-01T02:20:28.506Z,37.41
2022-12-01T02:23:05.969Z,37.50
2022-12-01T02:25:37.540Z,36.98
2022-12-01T02:28:26.673Z,37.22
2022-12-01T02:30:57.551Z,37.26
2022-12-01T02:33:26.976Z,37.00
2022-12-01T02:35:58.968Z,37.20
2022-12-01T02:38:29.851Z,37.59
2022-12-01T02:41:01.595Z,37.36
2022-12-01T02:43:32.786Z,36.77
2022-12-01T02:46:05.744Z,37.35
2022-12-01T02:48:35.068Z,36.88
2022-12-01T02:51:05.685Z,37.07
2022-12-01T02:53:33.787Z,37.33
2022-12-01T02:56:01.969Z,37.56
2022-12-01T02:58:30.119Z,37.44
2022-12-01T03:01:07.668Z,37.23
2022-12-01T03:03:46.246Z,37.23
2022-12-01T03:06:17.096Z,37.57
2022-12-01T03:08:49.568Z,37.01
2022-12-01T03:11:27.264Z,37.27
2022-12-01T03:14:01.364Z,36.87
2022-12-01T03:16:34.018Z,36.74
2022-12-01T03:19:04.196Z,36.90
2022-12-01T03:21:34.448Z,37.07
2022-12-01T03:24:07.616Z,36.97
2022-12-01T03:26:36.607Z,37.07
2022-12-01T03:29:06.849Z,37.20
2022-12-01T03:31:39.554Z,37.54
2022-12-01T03:34:10.486Z,37.16
2022-12-01T03:36:40.240Z,37.19
2022-12-01T03:39:10.044Z,37.01
2022-12-01T03:41:39.293Z,37.20
2022-12-01T03:44:09.282Z,37.26
2022-12-01T03:46:42.639Z,37.42
2022-12-01T03:49:10.948Z,36.91
2022-12-01T03:51:43.407Z,36.87
2022-12-01T03:54:13.622Z,36.95
2022-12-01T03:56:44.804Z,37.00
2022-12-01T03:59:13.254Z,37.04
2022-12-01T04:01:43.089Z,37.03
2022-12-01T04:04:12.762Z,37.11
2022-12-01T04:06:41.129Z,37.45
2022-12-01T04:09:09.532Z,37.37
2022-12-01T04:11:55.200Z,36.69
2022-12-01T04:14:23.710Z,37.39
2022-12-01T04:16:53.549Z,36.79
2022-12-01T04:19:21.929Z,37.26
2022-12-01T04:21:50.169Z,37.07
2022-12-01T04:24:18.336Z,37.33
2022-12-01T04:26:47.262Z,36.73
2022-12-01T04:29:15.569Z,37.26
2022-12-01T04:31:43.885Z,37.39
2022-12-01T04:34:13.557Z,37.45
2022-12-01T04:36:41.978Z,37.26
2022-12-01T04:39:10.190Z,37.26
2022-12-01T04:41:38.468Z,36.97
2022-12-01T04:44:06.957Z,37.20
2022-12-01T04:46:35.098Z,37.24
2022-12-01T04:49:03.281Z,36.95
2022-12-01T04:51:32.778Z,37.12
2022-12-01T04:54:00.893Z,36.93
2022-12-01T04:56:29.015Z,36.97
2022-12-01T04:58:59.030Z,36.83
2022-12-01T05:01:27.314Z,36.66
2022-12-01T05:03:55.457Z,37.00
2022-12-01T05:06:24.673Z,37.06
2022-12-01T05:08:56.309Z,36.99
2022-12-01T05:11:25.737Z,36.79
2022-12-01T05:13:53.954Z,37.22
2022-12-01T05:16:22.877Z,36.98
2022-12-01T05:18:51.433Z,37.14
2022-12-01T05:21:18.588Z,37.05
2022-12-01T05:23:46.718Z,36.98
2022-12-01T05:26:16.176Z,36.92
2022-12-01T05:28:44.287Z,36.67
2022-12-01T05:31:12.401Z,36.71
2022-12-01T05:33:40.672Z,36.84
2022-12-01T05:36:09.347Z,36.93
2022-12-01T05:38:37.643Z,36.59
2022-12-01T05:41:05.921Z,36.50
2022-12-01T05:43:35.515Z,37.09
2022-12-01T05:46:03.733Z,36.64
2022-12-01T05:48:31.922Z,37.29
2022-12-01T05:51:00.000Z,37.30
2022-12-01T05:53:28.102Z,36.57
2022-12-01T05:55:56.336Z,37.19
2022-12-01T05:58:24.602Z,36.79
2022-12-01T06:00:54.389Z,36.83
2022-12-01T06:03:22.745Z,37.27
2022-12-01T06:05:51.052Z,37.34
2022-12-01T06:08:19.549Z,36.52
2022-12-01T06:10:48.461Z,37.09
2022-12-01T06:13:16.820Z,36.61
2022-12-01T06:15:45.135Z,37.29
2022-12-01T06:18:14.810Z,36.75
2022-12-01T06:20:43.345Z,36.87
2022-12-01T06:23:11.628Z,37.12
2022-12-01T06:25:39.868Z,37.29
2022-12-01T06:28:07.941Z,36.92
2022-12-01T06:30:36.119Z,36.47
2022-12-01T06:33:04.348Z,36.52
2022-12-01T06:35:33.877Z,36.81
2022-12-01T06:38:02.188Z,36.87
2022-12-01T06:40:30.272Z,36.67
2022-12-01T06:43:00.846Z,37.05
2022-12-01T06:45:29.097Z,37.13
2022-12-01T06:47:57.318Z,36.93
2022-12-01T06:50:25.768Z,37.30
2022-12-01T06:52:55.634Z,37.05
2022-12-01T06:55:23.761Z,37.10
2022-12-01T06:57:52.017Z,36.99
2022-12-01T07:00:20.916Z,37.12
2022-12-01T07:02:49.132Z,36.79
2022-12-01T07:05:17.514Z,36.93
2022-12-01T07:07:45.707Z,37.32
2022-12-01T07:10:15.425Z,36.85
2022-12-01T07:12:43.606Z,36.57
2022-12-01T07:15:12.357Z,36.90
2022-12-01T07:17:40.496Z,37.24
2022-12-01T07:20:11.378Z,36.97
2022-12-01T07:22:40.036Z,36.68
2022-12-01T07:25:08.952Z,36.67
2022-12-01T07:27:38.529Z,36.93
2022-12-01T07:30:08.103Z,36.93
2022-12-01T07:32:36.997Z,36.89
2022-12-01T07:35:05.473Z,36.86
2022-12-01T07:37:33.815Z,36.94
2022-12-01T07:40:01.927Z,36.93
2022-12-01T07:42:30.136Z,37.00
2022-12-01T07:44:59.628Z,37.30
2022-12-01T07:47:27.810Z,37.03
2022-12-01T07:49:55.949Z,36.98
2022-12-01T07:52:24.115Z,36.90
2022-12-01T07:54:52.773Z,36.67
2022-12-01T07:57:21.001Z,37.09
2022-12-01T07:59:49.425Z,36.88
2022-12-01T08:02:19.461Z,37.25
2022-12-01T08:04:47.719Z,37.42
2022-12-01T08:07:15.797Z,37.20
2022-12-01T08:09:44.972Z,37.39
2022-12-01T08:12:13.080Z,37.53
2022-12-01T08:14:41.231Z,37.23
2022-12-01T08:17:09.404Z,37.53
2022-12-01T08:19:38.965Z,37.69
2022-12-01T08:22:07.124Z,37.31
2022-12-01T08:24:35.341Z,37.60
2022-12-01T08:27:03.443Z,37.29
2022-12-01T08:29:31.669Z,37.63
2022-12-01T08:32:00.037Z,37.06
2022-12-01T08:34:28.288Z,37.09
2022-12-01T08:36:57.805Z,37.12
2022-12-01T08:39:25.981Z,36.91
2022-12-01T08:41:54.081Z,37.35
2022-12-01T08:44:22.310Z,37.12
2022-12-01T08:46:50.866Z,36.97
2022-12-01T08:49:19.119Z,37.22
2022-12-01T08:51:47.193Z,37.35
2022-12-01T08:54:16.718Z,37.23
2022-12-01T08:56:45.547Z,37.27
2022-12-01T08:59:13.647Z,37.40
2022-12-01T09:01:52.261Z,37.00
2022-12-01T09:04:21.092Z,37.26
2022-12-01T09:06:49.896Z,36.86
2022-12-01T09:09:20.210Z,37.33
2022-12-01T09:11:48.576Z,37.00
2022-12-01T09:14:17.501Z,37.04
2022-12-01T09:16:46.291Z,36.51
2022-12-01T09:19:17.893Z,36.58
2022-12-01T09:21:50.377Z,36.58
2022-12-01T09:24:19.881Z,36.30
2022-12-01T09:26:48.024Z,36.74
2022-12-01T09:29:16.638Z,36.52
2022-12-01T09:31:44.897Z,35.92
2022-12-01T09:34:15.692Z,36.31
2022-12-01T09:36:43.853Z,36.08
2022-12-01T09:39:13.874Z,36.30
2022-12-01T09:41:45.187Z,36.29
2022-12-01T09:44:16.636Z,36.50
2022-12-01T09:46:45.737Z,35.99
2022-12-01T09:49:18.481Z,35.95
2022-12-01T09:51:46.648Z,36.41
2022-12-01T09:54:15.306Z,36.42
2022-12-01T09:56:46.131Z,35.90
2022-12-01T09:59:18.780Z,35.80
2022-12-01T10:01:49.389Z,35.86
2022-12-01T10:04:18.852Z,36.43
2022-12-01T10:06:49.340Z,36.37
2022-12-01T10:09:22.161Z,36.51
2022-12-01T10:11:52.927Z,36.68
2022-12-01T10:14:22.163Z,36.26
2022-12-01T10:16:55.444Z,36.74
2022-12-01T10:19:26.030Z,36.48
2022-12-01T10:22:06.525Z,36.66
2022-12-01T10:24:43.648Z,36.90
2022-12-01T10:27:17.656Z,36.60
2022-12-01T10:29:48.311Z,36.92
2022-12-01T10:32:19.216Z,36.89
2022-12-01T10:34:47.915Z,36.96
2022-12-01T10:37:18.476Z,36.62
2022-12-01T10:39:48.198Z,36.63
2022-12-01T10:42:19.717Z,36.76
2022-12-01T10:44:47.885Z,37.03
2022-12-01T10:47:19.748Z,36.95
2022-12-01T10:49:48.480Z,36.75
2022-12-01T10:52:33.385Z,36.67
2022-12-01T10:55:01.673Z,36.65
2022-12-01T10:57:31.716Z,37.08
2022-12-01T11:00:01.966Z,37.30
2022-12-01T11:02:31.307Z,36.89
2022-12-01T11:05:00.208Z,37.25
2022-12-01T11:07:29.774Z,36.88
2022-12-01T11:10:17.162Z,36.96
2022-12-01T11:12:47.590Z,36.99
2022-12-01T11:15:20.512Z,37.50
2022-12-01T11:17:48.632Z,37.42
2022-12-01T11:20:28.522Z,37.50
2022-12-01T11:23:12.928Z,37.79
2022-12-01T11:25:41.197Z,37.71
2022-12-01T11:28:20.668Z,37.84
2022-12-01T11:30:53.792Z,37.31
2022-12-01T11:33:24.614Z,37.29
2022-12-01T11:35:52.780Z,37.64
2022-12-01T11:38:30.277Z,37.29
2022-12-01T11:40:59.127Z,37.25
2022-12-01T11:43:29.683Z,37.69
2022-12-01T11:45:59.669Z,37.07
2022-12-01T11:48:28.765Z,37.36
2022-12-01T11:51:08.484Z,37.33
2022-12-01T11:53:37.541Z,37.31
2022-12-01T11:56:24.700Z,36.95
2022-12-01T11:59:03.257Z,37.54
2022-12-01T12:01:37.139Z,37.25
2022-12-01T12:04:15.869Z,37.27
2022-12-01T12:06:46.938Z,37.39
2022-12-01T12:09:45.215Z,37.49
2022-12-01T12:12:19.790Z,37.58
2022-12-01T12:14:55.346Z,36.97
2022-12-01T12:17:34.233Z,36.42
2022-12-01T12:20:27.554Z,36.54
2022-12-01T12:23:00.785Z,36.42
2022-12-01T12:25:33.071Z,36.47
2022-12-01T12:28:10.730Z,36.92
2022-12-01T12:30:42.948Z,36.58
2022-12-01T12:33:33.675Z,36.93
2022-12-01T12:36:05.863Z,36.67
2022-12-01T12:38:51.167Z,36.83
2022-12-01T12:41:29.672Z,37.32
2022-12-01T12:44:04.869Z,37.20
2022-12-01T12:46:37.052Z,36.87
2022-12-01T12:49:21.291Z,36.92
2022-12-01T12:51:52.138Z,37.29
2022-12-01T12:54:23.308Z,36.93
2022-12-01T12:56:54.176Z,37.37
2022-12-01T12:59:23.949Z,37.33
2022-12-01T13:01:57.907Z,37.17
2022-12-01T13:04:28.610Z,37.18
2022-12-01T13:06:59.901Z,37.29
2022-12-01T13:09:29.661Z,36.90
2022-12-01T13:12:00.733Z,37.29
2022-12-01T13:14:30.952Z,37.27
2022-12-01T13:17:11.338Z,37.65
2022-12-01T13:19:40.698Z,37.62
2022-12-01T13:22:08.908Z,37.70
2022-12-01T13:24:37.481Z,37.56
2022-12-01T13:27:08.701Z,37.48
2022-12-01T13:29:44.044Z,37.79
2022-12-01T13:32:30.306Z,37.81
2022-12-01T13:34:58.428Z,37.61
2022-12-01T13:37:27.292Z,37.47
2022-12-01T13:39:55.529Z,37.32
2022-12-01T13:42:24.384Z,37.38
2022-12-01T13:44:53.622Z,37.35
2022-12-01T13:47:40.232Z,37.63
2022-12-01T13:50:54.239Z,37.31
2022-12-01T13:53:27.220Z,37.69
2022-12-01T13:56:00.935Z,37.39
2022-12-01T13:58:45.149Z,37.23
2022-12-01T14:01:43.768Z,37.75
2022-12-01T14:04:40.935Z,37.37
2022-12-01T14:07:24.074Z,37.68
2022-12-01T14:09:53.048Z,37.60
2022-12-01T14:12:23.188Z,37.53
2022-12-01T14:14:55.382Z,37.96
2022-12-01T14:17:26.908Z,37.41
2022-12-01T14:19:56.788Z,37.76
2022-12-01T14:22:35.709Z,37.52
2022-12-01T14:25:05.650Z,38.09
2022-12-01T14:27:37.899Z,37.53
2022-12-01T14:30:51.998Z,37.42
2022-12-01T14:33:42.253Z,37.81
2022-12-01T14:36:24.556Z,37.64
2022-12-01T14:38:54.321Z,37.81
2022-12-01T14:41:25.431Z,37.55
2022-12-01T14:44:07.586Z,37.85
2022-12-01T14:46:44.618Z,37.82
2022-12-01T14:49:14.718Z,37.68
2022-12-01T14:51:46.261Z,38.05
2022-12-01T14:54:19.332Z,37.86
2022-12-01T14:56:48.106Z,37.42
2022-12-01T14:59:21.044Z,37.72
2022-12-01T15:01:50.599Z,37.87
2022-12-01T15:04:19.008Z,37.61
2022-12-01T15:06:48.698Z,37.87
2022-12-01T15:09:36.013Z,37.96
2022-12-01T15:12:07.861Z,37.95
2022-12-01T15:14:37.207Z,38.07
2022-12-01T15:17:06.334Z,37.80
2022-12-01T15:19:37.289Z,37.73
2022-12-01T15:22:13.928Z,38.02
2022-12-01T15:24:42.347Z,37.96
2022-12-01T15:27:27.597Z,38.21
2022-12-01T15:29:56.164Z,37.91
2022-12-01T15:32:24.670Z,37.83
2022-12-01T15:34:54.202Z,37.95
2022-12-01T15:37:24.995Z,37.86
2022-12-01T15:40:00.831Z,38.40
2022-12-01T15:42:40.982Z,37.69
2022-12-01T15:45:18.537Z,37.75
2022-12-01T15:47:48.100Z,37.65
2022-12-01T15:50:29.722Z,37.59
2022-12-01T15:52:59.873Z,37.92
2022-12-01T15:55:29.511Z,37.64
2022-12-01T15:57:57.816Z,37.76
2022-12-01T16:00:26.204Z,37.79
2022-12-01T16:02:56.633Z,37.91
2022-12-01T16:05:27.102Z,37.59
2022-12-01T16:10:45.353Z,37.66
2022-12-01T16:13:36.840Z,37.69
2022-12-01T16:16:29.573Z,38.04
2022-12-01T16:18:59.187Z,37.72
2022-12-01T16:21:27.541Z,37.53
2022-12-01T16:24:04.237Z,37.62
2022-12-01T16:26:34.000Z,37.59
2022-12-01T16:29:02.303Z,37.70
2022-12-01T16:31:30.588Z,37.81
2022-12-01T16:34:13.768Z,37.77
2022-12-01T16:36:47.298Z,38.23
2022-12-01T16:39:15.609Z,37.86
2022-12-01T16:41:46.915Z,37.88
2022-12-01T16:44:30.877Z,37.94
2022-12-01T16:46:59.138Z,38.42
2022-12-01T16:49:27.348Z,38.25
2022-12-01T16:51:57.128Z,38.82
2022-12-01T16:54:26.573Z,39.13
2022-12-01T16:56:56.269Z,39.08
2022-12-01T16:59:25.271Z,39.07
2022-12-01T17:01:53.687Z,39.68
2022-12-01T17:04:21.901Z,39.41
2022-12-01T17:06:50.193Z,39.56
2022-12-01T17:09:18.380Z,39.24
2022-12-01T17:11:46.664Z,39.34
2022-12-01T17:14:16.373Z,39.47
2022-12-01T17:16:44.579Z,39.32
2022-12-01T17:19:12.923Z,39.70
2022-12-01T17:21:41.330Z,39.36
2022-12-01T17:24:09.781Z,39.40
2022-12-01T17:26:38.309Z,39.84
2022-12-01T17:29:06.541Z,39.68
2022-12-01T17:31:37.033Z,39.76
2022-12-01T17:34:05.411Z,39.47
2022-12-01T17:36:34.212Z,39.36
2022-12-01T17:39:02.507Z,39.92
2022-12-01T17:41:35.761Z,39.93
2022-12-01T17:44:04.544Z,39.91
2022-12-01T17:46:32.814Z,40.55
2022-12-01T17:49:08.677Z,40.30
2022-12-01T17:51:37.041Z,40.17
2022-12-01T17:54:05.537Z,40.34
2022-12-01T17:56:33.997Z,40.87
2022-12-01T17:59:02.219Z,40.71
2022-12-01T18:01:30.858Z,40.83
2022-12-01T18:03:59.371Z,41.00
2022-12-01T18:06:29.080Z,41.07
2022-12-01T18:08:57.733Z,40.78
2022-12-01T18:11:26.082Z,40.10
2022-12-01T18:13:54.407Z,40.25
2022-12-01T18:16:23.812Z,40.00
2022-12-01T18:18:52.404Z,40.11
2022-12-01T18:21:22.821Z,39.98
2022-12-01T18:23:53.138Z,39.98
2022-12-01T18:26:22.936Z,40.22
2022-12-01T18:28:54.990Z,40.18
2022-12-01T18:31:23.451Z,40.28
2022-12-01T18:33:52.042Z,40.06
2022-12-01T18:36:21.161Z,40.26
2022-12-01T18:38:49.386Z,39.84
2022-12-01T18:41:19.577Z,39.85
2022-12-01T18:43:47.865Z,39.81
2022-12-01T18:46:17.173Z,40.08
2022-12-01T18:48:45.945Z,40.08
2022-12-01T18:51:14.175Z,40.13
2022-12-01T18:53:42.498Z,40.28
2022-12-01T18:56:11.972Z,40.26
2022-12-01T18:58:42.042Z,39.99
2022-12-01T19:01:19.349Z,39.75
2022-12-01T19:03:48.195Z,39.83
2022-12-01T19:06:16.755Z,39.77
2022-12-01T19:08:46.934Z,40.14
2022-12-01T19:11:15.413Z,39.79
2022-12-01T19:13:45.337Z,39.53
2022-12-01T19:16:15.364Z,39.76
2022-12-01T19:18:43.769Z,39.67
2022-12-01T19:21:13.640Z,39.46
2022-12-01T19:23:42.412Z,39.91
2022-12-01T19:26:17.167Z,39.75
2022-12-01T19:28:48.004Z,39.87
2022-12-01T19:31:18.222Z,40.13
2022-12-01T19:33:46.568Z,39.92
2022-12-01T19:36:16.874Z,39.32
2022-12-01T19:38:45.737Z,39.37
2022-12-01T19:41:14.637Z,39.32
2022-12-01T19:43:43.437Z,39.47
2022-12-01T19:46:14.795Z,39.67
2022-12-01T19:48:43.282Z,39.79
2022-12-01T19:51:17.442Z,39.41
2022-12-01T19:53:45.717Z,39.73
2022-12-01T19:56:14.070Z,39.78
2022-12-01T19:58:42.365Z,39.76
2022-12-01T20:01:13.121Z,39.37
2022-12-01T20:03:42.993Z,39.00
2022-12-01T20:06:13.414Z,39.10
2022-12-01T20:08:42.014Z,39.12
2022-12-01T20:11:10.876Z,39.26
2022-12-01T20:13:41.049Z,39.27
2022-12-01T20:16:10.245Z,39.05
2022-12-01T20:18:40.200Z,39.21
2022-12-01T20:21:09.834Z,39.21
2022-12-01T20:23:39.152Z,39.42
2022-12-01T20:26:08.370Z,39.20
2022-12-01T20:28:36.724Z,39.08
2022-12-01T20:31:05.353Z,39.37
2022-12-01T20:33:33.748Z,39.30
2022-12-01T20:36:03.713Z,39.30
2022-12-01T20:38:32.169Z,39.73
2022-12-01T20:41:00.442Z,39.61
2022-12-01T20:43:28.952Z,39.34
2022-12-01T20:45:57.462Z,39.40
2022-12-01T20:48:25.779Z,39.29
2022-12-01T20:50:54.018Z,39.54
2022-12-01T20:53:23.918Z,39.48
2022-12-01T20:55:52.161Z,39.56
2022-12-01T20:58:21.737Z,39.30
2022-12-01T21:00:50.384Z,39.94
2022-12-01T21:03:18.909Z,39.34
2022-12-01T21:05:47.107Z,39.41
2022-12-01T21:08:15.424Z,39.36
2022-12-01T21:10:50.724Z,39.66
2022-12-01T21:13:37.556Z,39.46
2022-12-01T21:16:12.348Z,39.87
2022-12-01T21:18:45.963Z,39.55
2022-12-01T21:21:22.538Z,39.66
2022-12-01T21:24:01.736Z,39.36
2022-12-01T21:26:31.429Z,39.89
2022-12-01T21:29:00.621Z,40.14
2022-12-01T21:31:29.199Z,39.77
2022-12-01T21:33:57.526Z,40.00
2022-12-01T21:36:25.633Z,39.65
2022-12-01T21:38:55.903Z,39.47
2022-12-01T21:41:26.237Z,39.59
2022-12-01T21:43:57.617Z,39.48
2022-12-01T21:46:25.810Z,40.09
2022-12-01T21:48:53.979Z,39.82
2022-12-01T21:51:23.076Z,39.55
2022-12-01T21:53:51.618Z,39.67
2022-12-01T21:56:22.563Z,39.85
2022-12-01T21:58:50.808Z,39.88
2022-12-01T22:01:27.027Z,40.00
2022-12-01T22:04:00.520Z,39.64
2022-12-01T22:06:34.008Z,39.96
2022-12-01T22:09:03.462Z,40.25
2022-12-01T22:11:32.201Z,39.95
2022-12-01T22:14:12.728Z,40.01
2022-12-01T22:16:43.974Z,39.76
2022-12-01T22:19:24.169Z,40.03
2022-12-01T22:22:02.080Z,40.30
2022-12-01T22:24:40.575Z,39.88
2022-12-01T22:27:29.812Z,40.25
2022-12-01T22:29:59.711Z,40.47
2022-12-01T22:32:55.911Z,40.19
2022-12-01T22:35:35.681Z,40.04
2022-12-01T22:38:20.541Z,39.89
2022-12-01T22:40:56.904Z,39.96
2022-12-01T22:43:30.193Z,40.36
2022-12-01T22:46:12.463Z,39.96
2022-12-01T22:48:43.098Z,40.18
2022-12-01T22:51:23.261Z,40.18
2022-12-01T22:53:53.307Z,40.22
2022-12-01T22:56:27.821Z,40.17
2022-12-01T22:58:56.748Z,40.17
2022-12-01T23:01:28.282Z,40.25
2022-12-01T23:04:21.763Z,40.43
2022-12-01T23:07:01.379Z,39.85
2022-12-01T23:09:33.910Z,40.05
2022-12-01T23:12:07.245Z,39.98
2022-12-01T23:14:35.956Z,40.34
2022-12-01T23:17:07.869Z,40.16
2022-12-01T23:19:37.733Z,40.05
2022-12-01T23:22:06.141Z,40.03
2022-12-01T23:24:34.439Z,39.97
2022-12-01T23:27:02.929Z,39.75
2022-12-01T23:29:31.272Z,39.98
2022-12-01T23:31:59.825Z,39.72
2022-12-01T23:34:28.183Z,39.99
2022-12-01T23:36:58.386Z,40.36
2022-12-01T23:39:30.494Z,40.21
2022-12-01T23:41:59.009Z,39.98
2022-12-01T23:44:32.830Z,39.75
2022-12-01T23:47:01.612Z,39.98
2022-12-01T23:49:31.862Z,39.88
2022-12-01T23:52:02.333Z,39.71
2022-12-01T23:54:31.652Z,39.81
2022-12-01T23:57:02.252Z,39.75
2022-12-01T23:59:30.686Z,40.12
